sensor_id;sensor_type;location;lat;lon;timestamp;pressure;altitude;pressure_sealevel;temperature;humidity
39897;BME280;25567;48.276;14.242;2023-03-21T00:00:43;98626.59;;;6.41;100.00
39897;BME280;25567;48.276;14.242;2023-03-21T00:03:10;98623.94;;;6.34;100.00
39897;BME280;25567;48.276;14.242;2023-03-21T00:05:41;98622.06;;;6.21;100.00
39897;BME280;25567;48.276;14.242;2023-03-21T00:08:08;98620.81;;;6.17;100.00
39897;BME280;25567;48.276;14.242;2023-03-21T00:10:35;98620.63;;;6.18;100.00
39897;BME280;25567;48.276;14.242;2023-03-21T00:13:22;98630.88;;;6.00;100.00
39897;BME280;25567;48.276;14.242;2023-03-21T00:15:48;98628.06;;;6.08;100.00
39897;BME280;25567;48.276;14.242;2023-03-21T00:18:36;98629.28;;;6.06;100.00
39897;BME280;25567;48.276;14.242;2023-03-21T00:21:10;98622.75;;;6.01;100.00
39897;BME280;25567;48.276;14.242;2023-03-21T00:23:58;98626.78;;;5.97;100.00
39897;BME280;25567;48.276;14.242;2023-03-21T00:26:26;98633.50;;;6.00;100.00
39897;BME280;25567;48.276;14.242;2023-03-21T00:28:52;98626.66;;;6.12;100.00
39897;BME280;25567;48.276;14.242;2023-03-21T00:31:19;98627.94;;;6.23;100.00
39897;BME280;25567;48.276;14.242;2023-03-21T00:33:46;98631.63;;;6.29;100.00
39897;BME280;25567;48.276;14.242;2023-03-21T00:36:13;98625.53;;;6.28;100.00
39897;BME280;25567;48.276;14.242;2023-03-21T00:38:41;98618.69;;;6.34;100.00
39897;BME280;25567;48.276;14.242;2023-03-21T00:41:11;98616.88;;;6.41;100.00
39897;BME280;25567;48.276;14.242;2023-03-21T00:43:59;98610.59;;;6.42;100.00
39897;BME280;25567;48.276;14.242;2023-03-21T00:46:27;98607.97;;;6.49;100.00
39897;BME280;25567;48.276;14.242;2023-03-21T00:49:08;98608.56;;;6.51;100.00
39897;BME280;25567;48.276;14.242;2023-03-21T00:51:34;98604.69;;;6.40;100.00
39897;BME280;25567;48.276;14.242;2023-03-21T00:54:01;98602.72;;;6.49;100.00
39897;BME280;25567;48.276;14.242;2023-03-21T00:56:31;98599.19;;;6.35;100.00
39897;BME280;25567;48.276;14.242;2023-03-21T00:58:57;98605.31;;;6.36;100.00
39897;BME280;25567;48.276;14.242;2023-03-21T01:01:24;98596.41;;;6.37;100.00
39897;BME280;25567;48.276;14.242;2023-03-21T01:03:52;98602.66;;;6.36;100.00
39897;BME280;25567;48.276;14.242;2023-03-21T01:06:29;98600.41;;;6.32;100.00
39897;BME280;25567;48.276;14.242;2023-03-21T01:08:56;98601.81;;;6.28;100.00
39897;BME280;25567;48.276;14.242;2023-03-21T01:11:26;98593.50;;;6.18;100.00
39897;BME280;25567;48.276;14.242;2023-03-21T01:13:54;98596.69;;;6.13;100.00
39897;BME280;25567;48.276;14.242;2023-03-21T01:16:37;98599.09;;;6.08;100.00
39897;BME280;25567;48.276;14.242;2023-03-21T01:19:07;98594.59;;;6.02;100.00
39897;BME280;25567;48.276;14.242;2023-03-21T01:21:50;98591.59;;;6.05;100.00
39897;BME280;25567;48.276;14.242;2023-03-21T01:24:17;98585.72;;;6.10;100.00
39897;BME280;25567;48.276;14.242;2023-03-21T01:26:44;98576.38;;;6.00;100.00
39897;BME280;25567;48.276;14.242;2023-03-21T01:29:10;98579.84;;;6.01;100.00
39897;BME280;25567;48.276;14.242;2023-03-21T01:31:37;98580.63;;;6.01;100.00
39897;BME280;25567;48.276;14.242;2023-03-21T01:34:04;98578.63;;;6.04;100.00
39897;BME280;25567;48.276;14.242;2023-03-21T01:36:31;98584.94;;;6.09;100.00
39897;BME280;25567;48.276;14.242;2023-03-21T01:38:58;98581.91;;;6.12;100.00
39897;BME280;25567;48.276;14.242;2023-03-21T01:44:17;98584.31;;;6.14;100.00
39897;BME280;25567;48.276;14.242;2023-03-21T01:46:45;98585.72;;;6.10;100.00
39897;BME280;25567;48.276;14.242;2023-03-21T01:49:37;98583.72;;;6.12;100.00
39897;BME280;25567;48.276;14.242;2023-03-21T01:52:10;98587.75;;;6.08;100.00
39897;BME280;25567;48.276;14.242;2023-03-21T01:54:46;98592.19;;;6.07;100.00
39897;BME280;25567;48.276;14.242;2023-03-21T01:57:20;98592.41;;;6.06;100.00
39897;BME280;25567;48.276;14.242;2023-03-21T01:59:51;98582.47;;;6.01;100.00
39897;BME280;25567;48.276;14.242;2023-03-21T02:02:24;98580.03;;;5.99;100.00
39897;BME280;25567;48.276;14.242;2023-03-21T02:04:52;98577.75;;;5.96;100.00
39897;BME280;25567;48.276;14.242;2023-03-21T02:07:27;98572.81;;;5.80;100.00
39897;BME280;25567;48.276;14.242;2023-03-21T02:09:55;98572.63;;;5.81;100.00
39897;BME280;25567;48.276;14.242;2023-03-21T02:12:25;98570.97;;;5.80;100.00
39897;BME280;25567;48.276;14.242;2023-03-21T02:14:52;98563.25;;;5.72;100.00
39897;BME280;25567;48.276;14.242;2023-03-21T02:25:46;98571.34;;;5.71;100.00
39897;BME280;25567;48.276;14.242;2023-03-21T02:30:48;98561.00;;;5.69;100.00
39897;BME280;25567;48.276;14.242;2023-03-21T02:38:49;98566.59;;;5.59;100.00
39897;BME280;25567;48.276;14.242;2023-03-21T02:44:20;98565.78;;;5.52;100.00
39897;BME280;25567;48.276;14.242;2023-03-21T02:46:52;98574.66;;;5.51;100.00
39897;BME280;25567;48.276;14.242;2023-03-21T02:49:38;98572.78;;;5.45;100.00
39897;BME280;25567;48.276;14.242;2023-03-21T02:52:13;98564.66;;;5.40;100.00
39897;BME280;25567;48.276;14.242;2023-03-21T02:54:58;98571.47;;;5.27;100.00
39897;BME280;25567;48.276;14.242;2023-03-21T02:57:26;98564.22;;;5.29;100.00
39897;BME280;25567;48.276;14.242;2023-03-21T03:00:09;98561.69;;;5.21;100.00
39897;BME280;25567;48.276;14.242;2023-03-21T03:02:42;98564.91;;;5.16;100.00
39897;BME280;25567;48.276;14.242;2023-03-21T03:05:15;98566.34;;;5.19;100.00
39897;BME280;25567;48.276;14.242;2023-03-21T03:08:06;98563.97;;;5.24;100.00
39897;BME280;25567;48.276;14.242;2023-03-21T03:10:45;98567.34;;;5.18;100.00
39897;BME280;25567;48.276;14.242;2023-03-21T03:21:29;98559.84;;;4.93;100.00
39897;BME280;25567;48.276;14.242;2023-03-21T03:24:16;98557.50;;;4.77;100.00
39897;BME280;25567;48.276;14.242;2023-03-21T03:27:05;98548.38;;;4.73;100.00
39897;BME280;25567;48.276;14.242;2023-03-21T03:29:37;98554.38;;;4.66;100.00
39897;BME280;25567;48.276;14.242;2023-03-21T03:32:21;98556.00;;;4.67;100.00
39897;BME280;25567;48.276;14.242;2023-03-21T03:34:53;98562.94;;;4.54;100.00
39897;BME280;25567;48.276;14.242;2023-03-21T03:37:26;98560.31;;;4.54;100.00
39897;BME280;25567;48.276;14.242;2023-03-21T03:40:01;98554.97;;;4.47;100.00
39897;BME280;25567;48.276;14.242;2023-03-21T03:42:35;98551.34;;;4.48;100.00
39897;BME280;25567;48.276;14.242;2023-03-21T03:45:03;98554.38;;;4.45;100.00
39897;BME280;25567;48.276;14.242;2023-03-21T03:47:36;98553.91;;;4.41;100.00
39897;BME280;25567;48.276;14.242;2023-03-21T03:50:27;98544.97;;;4.36;100.00
39897;BME280;25567;48.276;14.242;2023-03-21T03:53:09;98548.13;;;4.31;100.00
39897;BME280;25567;48.276;14.242;2023-03-21T03:55:44;98538.94;;;4.20;100.00
39897;BME280;25567;48.276;14.242;2023-03-21T03:58:16;98539.78;;;4.21;100.00
39897;BME280;25567;48.276;14.242;2023-03-21T04:00:51;98545.81;;;4.21;100.00
39897;BME280;25567;48.276;14.242;2023-03-21T04:03:17;98540.94;;;4.18;100.00
39897;BME280;25567;48.276;14.242;2023-03-21T04:05:45;98544.56;;;4.17;100.00
39897;BME280;25567;48.276;14.242;2023-03-21T04:08:12;98552.00;;;4.13;100.00
39897;BME280;25567;48.276;14.242;2023-03-21T04:10:40;98553.28;;;4.03;100.00
39897;BME280;25567;48.276;14.242;2023-03-21T04:13:07;98557.00;;;3.93;100.00
39897;BME280;25567;48.276;14.242;2023-03-21T04:15:34;98563.25;;;3.92;100.00
39897;BME280;25567;48.276;14.242;2023-03-21T04:18:02;98558.91;;;3.70;100.00
39897;BME280;25567;48.276;14.242;2023-03-21T04:20:29;98555.22;;;3.49;100.00
39897;BME280;25567;48.276;14.242;2023-03-21T04:23:03;98569.03;;;3.58;100.00
39897;BME280;25567;48.276;14.242;2023-03-21T04:25:32;98559.00;;;3.61;100.00
39897;BME280;25567;48.276;14.242;2023-03-21T04:28:00;98560.00;;;3.60;100.00
39897;BME280;25567;48.276;14.242;2023-03-21T04:30:27;98559.81;;;3.62;100.00
39897;BME280;25567;48.276;14.242;2023-03-21T04:32:53;98562.28;;;3.63;100.00
39897;BME280;25567;48.276;14.242;2023-03-21T04:35:23;98560.66;;;3.62;100.00
39897;BME280;25567;48.276;14.242;2023-03-21T04:37:50;98564.06;;;3.63;100.00
39897;BME280;25567;48.276;14.242;2023-03-21T04:40:17;98558.38;;;3.59;100.00
39897;BME280;25567;48.276;14.242;2023-03-21T04:42:45;98559.44;;;3.50;100.00
39897;BME280;25567;48.276;14.242;2023-03-21T04:45:14;98554.28;;;3.57;100.00
39897;BME280;25567;48.276;14.242;2023-03-21T04:47:41;98557.28;;;3.54;100.00
39897;BME280;25567;48.276;14.242;2023-03-21T04:50:09;98561.81;;;3.60;100.00
39897;BME280;25567;48.276;14.242;2023-03-21T04:52:36;98559.38;;;3.58;100.00
39897;BME280;25567;48.276;14.242;2023-03-21T04:55:04;98559.38;;;3.58;100.00
39897;BME280;25567;48.276;14.242;2023-03-21T04:57:31;98564.63;;;3.58;100.00
39897;BME280;25567;48.276;14.242;2023-03-21T04:59:57;98557.56;;;3.59;100.00
39897;BME280;25567;48.276;14.242;2023-03-21T05:02:24;98564.25;;;3.61;100.00
39897;BME280;25567;48.276;14.242;2023-03-21T05:04:51;98558.38;;;3.59;100.00
39897;BME280;25567;48.276;14.242;2023-03-21T05:07:18;98550.31;;;3.46;100.00
39897;BME280;25567;48.276;14.242;2023-03-21T05:09:44;98553.13;;;3.44;100.00
39897;BME280;25567;48.276;14.242;2023-03-21T05:12:11;98560.47;;;3.49;100.00
39897;BME280;25567;48.276;14.242;2023-03-21T05:14:38;98559.09;;;3.53;100.00
39897;BME280;25567;48.276;14.242;2023-03-21T05:17:05;98554.06;;;3.52;100.00
39897;BME280;25567;48.276;14.242;2023-03-21T05:19:31;98559.28;;;3.52;100.00
39897;BME280;25567;48.276;14.242;2023-03-21T05:22:08;98565.16;;;3.54;100.00
39897;BME280;25567;48.276;14.242;2023-03-21T05:24:36;98570.69;;;3.44;100.00
39897;BME280;25567;48.276;14.242;2023-03-21T05:27:04;98560.53;;;3.41;100.00
39897;BME280;25567;48.276;14.242;2023-03-21T05:29:32;98574.09;;;3.29;100.00
39897;BME280;25567;48.276;14.242;2023-03-21T05:31:59;98573.72;;;3.32;100.00
39897;BME280;25567;48.276;14.242;2023-03-21T05:34:27;98575.66;;;3.39;100.00
39897;BME280;25567;48.276;14.242;2023-03-21T05:36:54;98568.25;;;3.42;100.00
39897;BME280;25567;48.276;14.242;2023-03-21T05:39:21;98579.63;;;3.49;100.00
39897;BME280;25567;48.276;14.242;2023-03-21T05:41:47;98573.50;;;3.57;100.00
39897;BME280;25567;48.276;14.242;2023-03-21T05:44:14;98581.25;;;3.65;100.00
39897;BME280;25567;48.276;14.242;2023-03-21T05:46:41;98574.03;;;3.67;100.00
39897;BME280;25567;48.276;14.242;2023-03-21T05:49:09;98577.84;;;3.80;100.00
39897;BME280;25567;48.276;14.242;2023-03-21T05:51:36;98576.09;;;3.87;100.00
39897;BME280;25567;48.276;14.242;2023-03-21T05:54:03;98571.56;;;3.96;100.00
39897;BME280;25567;48.276;14.242;2023-03-21T05:56:30;98567.13;;;4.11;100.00
39897;BME280;25567;48.276;14.242;2023-03-21T05:58:57;98572.00;;;4.14;100.00
39897;BME280;25567;48.276;14.242;2023-03-21T06:01:23;98577.06;;;4.16;100.00
39897;BME280;25567;48.276;14.242;2023-03-21T06:03:50;98566.81;;;4.21;100.00
39897;BME280;25567;48.276;14.242;2023-03-21T06:06:17;98571.16;;;4.29;100.00
39897;BME280;25567;48.276;14.242;2023-03-21T06:08:44;98569.41;;;4.36;100.00
39897;BME280;25567;48.276;14.242;2023-03-21T06:11:19;98574.72;;;4.43;100.00
39897;BME280;25567;48.276;14.242;2023-03-21T06:13:48;98565.38;;;4.55;100.00
39897;BME280;25567;48.276;14.242;2023-03-21T06:16:15;98566.25;;;4.62;100.00
39897;BME280;25567;48.276;14.242;2023-03-21T06:18:42;98568.41;;;4.74;100.00
39897;BME280;25567;48.276;14.242;2023-03-21T06:21:09;98570.16;;;4.88;100.00
39897;BME280;25567;48.276;14.242;2023-03-21T06:23:35;98575.06;;;4.98;100.00
39897;BME280;25567;48.276;14.242;2023-03-21T06:26:03;98571.75;;;5.11;100.00
39897;BME280;25567;48.276;14.242;2023-03-21T06:28:30;98568.31;;;5.39;100.00
39897;BME280;25567;48.276;14.242;2023-03-21T06:30:57;98580.13;;;5.49;100.00
39897;BME280;25567;48.276;14.242;2023-03-21T06:33:24;98579.19;;;5.64;100.00
39897;BME280;25567;48.276;14.242;2023-03-21T06:35:52;98564.25;;;5.71;100.00
39897;BME280;25567;48.276;14.242;2023-03-21T06:38:19;98561.06;;;5.76;100.00
39897;BME280;25567;48.276;14.242;2023-03-21T06:40:46;98570.22;;;5.87;100.00
39897;BME280;25567;48.276;14.242;2023-03-21T06:43:13;98577.09;;;5.88;100.00
39897;BME280;25567;48.276;14.242;2023-03-21T06:45:42;98568.28;;;6.02;100.00
39897;BME280;25567;48.276;14.242;2023-03-21T06:48:09;98571.34;;;6.12;100.00
39897;BME280;25567;48.276;14.242;2023-03-21T06:50:36;98574.66;;;6.21;100.00
39897;BME280;25567;48.276;14.242;2023-03-21T06:53:03;98576.06;;;6.24;100.00
39897;BME280;25567;48.276;14.242;2023-03-21T06:55:30;98570.47;;;6.47;100.00
39897;BME280;25567;48.276;14.242;2023-03-21T06:57:56;98567.22;;;6.45;100.00
39897;BME280;25567;48.276;14.242;2023-03-21T07:00:23;98568.47;;;6.56;100.00
39897;BME280;25567;48.276;14.242;2023-03-21T07:02:50;98574.75;;;6.61;100.00
39897;BME280;25567;48.276;14.242;2023-03-21T07:05:17;98573.34;;;6.65;100.00
39897;BME280;25567;48.276;14.242;2023-03-21T07:07:44;98573.19;;;6.87;100.00
39897;BME280;25567;48.276;14.242;2023-03-21T07:10:11;98577.44;;;6.88;100.00
39897;BME280;25567;48.276;14.242;2023-03-21T07:12:37;98577.44;;;6.95;100.00
39897;BME280;25567;48.276;14.242;2023-03-21T07:15:06;98581.31;;;6.99;100.00
39897;BME280;25567;48.276;14.242;2023-03-21T07:17:33;98586.38;;;7.21;100.00
39897;BME280;25567;48.276;14.242;2023-03-21T07:19:59;98584.16;;;7.24;100.00
39897;BME280;25567;48.276;14.242;2023-03-21T07:22:26;98578.88;;;7.24;100.00
39897;BME280;25567;48.276;14.242;2023-03-21T07:24:53;98578.69;;;7.19;100.00
39897;BME280;25567;48.276;14.242;2023-03-21T07:27:30;98580.47;;;7.25;100.00
39897;BME280;25567;48.276;14.242;2023-03-21T07:29:57;98581.69;;;7.29;100.00
39897;BME280;25567;48.276;14.242;2023-03-21T07:32:24;98583.50;;;7.49;100.00
39897;BME280;25567;48.276;14.242;2023-03-21T07:34:55;98580.22;;;7.74;100.00
39897;BME280;25567;48.276;14.242;2023-03-21T07:37:22;98576.94;;;7.92;100.00
39897;BME280;25567;48.276;14.242;2023-03-21T07:39:49;98573.44;;;8.05;100.00
39897;BME280;25567;48.276;14.242;2023-03-21T07:42:17;98576.25;;;8.10;100.00
39897;BME280;25567;48.276;14.242;2023-03-21T07:44:43;98573.75;;;8.28;100.00
39897;BME280;25567;48.276;14.242;2023-03-21T07:47:10;98578.72;;;8.50;100.00
39897;BME280;25567;48.276;14.242;2023-03-21T07:49:37;98576.63;;;8.65;100.00
39897;BME280;25567;48.276;14.242;2023-03-21T07:52:04;98581.81;;;8.79;100.00
39897;BME280;25567;48.276;14.242;2023-03-21T07:54:32;98579.53;;;8.89;99.63
39897;BME280;25567;48.276;14.242;2023-03-21T07:56:59;98571.53;;;8.96;99.07
39897;BME280;25567;48.276;14.242;2023-03-21T07:59:25;98570.25;;;9.05;98.07
39897;BME280;25567;48.276;14.242;2023-03-21T08:01:52;98571.38;;;9.16;98.32
39897;BME280;25567;48.276;14.242;2023-03-21T08:04:19;98579.03;;;9.24;97.87
39897;BME280;25567;48.276;14.242;2023-03-21T08:06:45;98573.28;;;9.34;96.01
39897;BME280;25567;48.276;14.242;2023-03-21T08:09:12;98571.16;;;9.43;92.91
39897;BME280;25567;48.276;14.242;2023-03-21T08:11:39;98572.31;;;9.47;91.39
39897;BME280;25567;48.276;14.242;2023-03-21T08:14:06;98567.00;;;9.54;92.56
39897;BME280;25567;48.276;14.242;2023-03-21T08:16:33;98571.41;;;9.60;90.88
39897;BME280;25567;48.276;14.242;2023-03-21T08:19:00;98568.84;;;9.72;90.28
39897;BME280;25567;48.276;14.242;2023-03-21T08:21:26;98575.69;;;9.79;89.08
39897;BME280;25567;48.276;14.242;2023-03-21T08:23:53;98579.44;;;9.72;88.13
39897;BME280;25567;48.276;14.242;2023-03-21T08:26:20;98567.22;;;9.89;89.19
39897;BME280;25567;48.276;14.242;2023-03-21T08:28:51;98566.88;;;10.04;89.20
39897;BME280;25567;48.276;14.242;2023-03-21T08:31:17;98568.53;;;10.17;89.39
39897;BME280;25567;48.276;14.242;2023-03-21T08:33:47;98563.28;;;10.29;88.48
39897;BME280;25567;48.276;14.242;2023-03-21T08:36:20;98565.78;;;10.24;85.52
39897;BME280;25567;48.276;14.242;2023-03-21T08:38:47;98562.72;;;10.27;84.89
39897;BME280;25567;48.276;14.242;2023-03-21T08:41:14;98563.97;;;10.43;84.15
39897;BME280;25567;48.276;14.242;2023-03-21T08:43:41;98563.91;;;10.61;85.20
39897;BME280;25567;48.276;14.242;2023-03-21T08:46:07;98564.28;;;10.77;82.55
39897;BME280;25567;48.276;14.242;2023-03-21T08:48:34;98560.72;;;10.83;82.79
39897;BME280;25567;48.276;14.242;2023-03-21T08:51:04;98563.75;;;10.87;82.31
39897;BME280;25567;48.276;14.242;2023-03-21T08:53:32;98563.94;;;10.73;78.84
39897;BME280;25567;48.276;14.242;2023-03-21T08:55:58;98556.53;;;10.63;78.82
39897;BME280;25567;48.276;14.242;2023-03-21T08:58:25;98563.94;;;10.73;79.45
39897;BME280;25567;48.276;14.242;2023-03-21T09:00:52;98557.94;;;10.78;78.21
39897;BME280;25567;48.276;14.242;2023-03-21T09:03:19;98560.03;;;10.76;77.57
39897;BME280;25567;48.276;14.242;2023-03-21T09:05:45;98551.63;;;10.79;78.77
39897;BME280;25567;48.276;14.242;2023-03-21T09:08:12;98557.16;;;10.77;78.34
39897;BME280;25567;48.276;14.242;2023-03-21T09:10:39;98560.84;;;10.76;79.48
39897;BME280;25567;48.276;14.242;2023-03-21T09:13:05;98562.00;;;10.80;78.67
39897;BME280;25567;48.276;14.242;2023-03-21T09:15:32;98557.88;;;11.08;80.01
39897;BME280;25567;48.276;14.242;2023-03-21T09:18:00;98563.94;;;11.27;79.79
39897;BME280;25567;48.276;14.242;2023-03-21T09:20:39;98560.69;;;11.25;77.47
39897;BME280;25567;48.276;14.242;2023-03-21T09:23:13;98557.13;;;11.31;77.78
39897;BME280;25567;48.276;14.242;2023-03-21T09:25:40;98553.31;;;11.27;78.43
39897;BME280;25567;48.276;14.242;2023-03-21T09:28:07;98555.94;;;11.51;78.26
39897;BME280;25567;48.276;14.242;2023-03-21T09:30:35;98550.97;;;11.55;76.47
39897;BME280;25567;48.276;14.242;2023-03-21T09:33:04;98549.47;;;11.47;77.54
39897;BME280;25567;48.276;14.242;2023-03-21T09:35:34;98555.25;;;11.56;76.44
39897;BME280;25567;48.276;14.242;2023-03-21T09:38:01;98547.38;;;11.73;78.67
39897;BME280;25567;48.276;14.242;2023-03-21T09:40:48;98540.78;;;11.87;77.19
39897;BME280;25567;48.276;14.242;2023-03-21T09:43:37;98544.25;;;11.99;75.53
39897;BME280;25567;48.276;14.242;2023-03-21T09:46:15;98534.41;;;12.00;75.01
39897;BME280;25567;48.276;14.242;2023-03-21T09:49:00;98536.22;;;12.11;75.29
39897;BME280;25567;48.276;14.242;2023-03-21T09:51:32;98536.94;;;12.07;74.87
39897;BME280;25567;48.276;14.242;2023-03-21T09:54:07;98537.25;;;12.10;74.73
39897;BME280;25567;48.276;14.242;2023-03-21T09:56:39;98534.19;;;12.30;73.87
39897;BME280;25567;48.276;14.242;2023-03-21T09:59:18;98531.22;;;12.44;74.19
39897;BME280;25567;48.276;14.242;2023-03-21T10:01:47;98534.66;;;12.56;71.45
39897;BME280;25567;48.276;14.242;2023-03-21T10:04:15;98524.53;;;12.87;72.85
39897;BME280;25567;48.276;14.242;2023-03-21T10:06:52;98521.38;;;13.07;71.53
39897;BME280;25567;48.276;14.242;2023-03-21T10:09:21;98523.69;;;13.21;70.09
39897;BME280;25567;48.276;14.242;2023-03-21T10:12:12;98519.75;;;13.23;67.83
39897;BME280;25567;48.276;14.242;2023-03-21T10:14:43;98523.63;;;13.15;67.72
39897;BME280;25567;48.276;14.242;2023-03-21T10:17:27;98510.31;;;13.15;68.27
39897;BME280;25567;48.276;14.242;2023-03-21T10:20:16;98516.28;;;13.23;67.15
39897;BME280;25567;48.276;14.242;2023-03-21T10:22:45;98515.28;;;13.29;65.97
39897;BME280;25567;48.276;14.242;2023-03-21T10:25:16;98510.78;;;13.29;66.27
39897;BME280;25567;48.276;14.242;2023-03-21T10:27:44;98500.94;;;13.30;66.56
39897;BME280;25567;48.276;14.242;2023-03-21T10:30:39;98500.47;;;13.33;65.29
39897;BME280;25567;48.276;14.242;2023-03-21T10:33:13;98504.28;;;13.37;65.57
39897;BME280;25567;48.276;14.242;2023-03-21T10:35:44;98496.66;;;13.46;66.44
39897;BME280;25567;48.276;14.242;2023-03-21T10:38:15;98491.97;;;13.53;66.43
39897;BME280;25567;48.276;14.242;2023-03-21T10:40:44;98494.13;;;13.56;65.78
39897;BME280;25567;48.276;14.242;2023-03-21T10:43:32;98493.69;;;13.64;64.55
39897;BME280;25567;48.276;14.242;2023-03-21T10:46:07;98489.25;;;13.70;63.89
39897;BME280;25567;48.276;14.242;2023-03-21T10:48:37;98476.47;;;13.94;64.64
39897;BME280;25567;48.276;14.242;2023-03-21T10:51:07;98490.25;;;14.13;63.59
39897;BME280;25567;48.276;14.242;2023-03-21T10:53:38;98487.38;;;14.20;62.16
39897;BME280;25567;48.276;14.242;2023-03-21T10:56:08;98478.69;;;14.30;61.03
39897;BME280;25567;48.276;14.242;2023-03-21T10:58:41;98477.44;;;14.38;60.38
39897;BME280;25567;48.276;14.242;2023-03-21T11:01:13;98479.66;;;14.46;59.09
39897;BME280;25567;48.276;14.242;2023-03-21T11:03:44;98475.06;;;14.68;60.84
39897;BME280;25567;48.276;14.242;2023-03-21T11:06:16;98472.66;;;14.67;57.92
39897;BME280;25567;48.276;14.242;2023-03-21T11:08:54;98466.78;;;14.70;58.53
39897;BME280;25567;48.276;14.242;2023-03-21T11:11:27;98470.59;;;14.79;58.49
39897;BME280;25567;48.276;14.242;2023-03-21T11:14:01;98475.50;;;14.93;58.04
39897;BME280;25567;48.276;14.242;2023-03-21T11:16:39;98477.41;;;14.97;57.03
39897;BME280;25567;48.276;14.242;2023-03-21T11:19:16;98473.78;;;15.14;57.27
39897;BME280;25567;48.276;14.242;2023-03-21T11:21:44;98461.41;;;15.02;56.13
39897;BME280;25567;48.276;14.242;2023-03-21T11:24:13;98462.94;;;14.93;55.96
39897;BME280;25567;48.276;14.242;2023-03-21T11:26:43;98456.16;;;15.18;56.58
39897;BME280;25567;48.276;14.242;2023-03-21T11:31:56;98443.66;;;15.29;56.41
39897;BME280;25567;48.276;14.242;2023-03-21T11:34:29;98452.53;;;15.34;55.97
39897;BME280;25567;48.276;14.242;2023-03-21T11:37:00;98446.34;;;15.29;54.11
39897;BME280;25567;48.276;14.242;2023-03-21T11:39:30;98441.00;;;15.29;53.79
39897;BME280;25567;48.276;14.242;2023-03-21T11:41:57;98431.34;;;15.23;54.12
39897;BME280;25567;48.276;14.242;2023-03-21T11:46:54;98428.22;;;14.88;54.87
39897;BME280;25567;48.276;14.242;2023-03-21T11:49:22;98416.53;;;14.99;56.16
39897;BME280;25567;48.276;14.242;2023-03-21T11:51:53;98420.66;;;15.23;54.68
39897;BME280;25567;48.276;14.242;2023-03-21T11:56:53;98407.03;;;15.19;54.71
39897;BME280;25567;48.276;14.242;2023-03-21T12:04:26;98393.50;;;15.41;55.02
39897;BME280;25567;48.276;14.242;2023-03-21T12:07:03;98393.00;;;15.55;54.63
39897;BME280;25567;48.276;14.242;2023-03-21T12:09:45;98395.06;;;15.32;53.86
39897;BME280;25567;48.276;14.242;2023-03-21T12:15:30;98376.41;;;15.52;54.15
39897;BME280;25567;48.276;14.242;2023-03-21T12:18:27;98364.41;;;15.60;54.97
39897;BME280;25567;48.276;14.242;2023-03-21T12:21:11;98364.41;;;15.60;53.93
39897;BME280;25567;48.276;14.242;2023-03-21T12:39:45;98332.41;;;15.81;50.44
39897;BME280;25567;48.276;14.242;2023-03-21T12:45:15;98337.50;;;15.82;51.00
39897;BME280;25567;48.276;14.242;2023-03-21T12:47:48;98337.97;;;15.69;51.73
39897;BME280;25567;48.276;14.242;2023-03-21T12:50:21;98344.38;;;15.68;51.24
39897;BME280;25567;48.276;14.242;2023-03-21T12:52:54;98334.56;;;15.84;51.95
39897;BME280;25567;48.276;14.242;2023-03-21T12:55:27;98329.69;;;15.76;50.55
39897;BME280;25567;48.276;14.242;2023-03-21T12:58:03;98327.06;;;15.81;50.34
39897;BME280;25567;48.276;14.242;2023-03-21T13:00:42;98310.47;;;15.84;50.95
39897;BME280;25567;48.276;14.242;2023-03-21T13:03:13;98320.91;;;15.86;49.60
39897;BME280;25567;48.276;14.242;2023-03-21T13:05:53;98320.38;;;16.04;48.70
39897;BME280;25567;48.276;14.242;2023-03-21T13:11:13;98317.19;;;15.97;49.17
39897;BME280;25567;48.276;14.242;2023-03-21T13:13:49;98312.63;;;15.92;50.39
39897;BME280;25567;48.276;14.242;2023-03-21T13:16:34;98302.47;;;15.94;51.13
39897;BME280;25567;48.276;14.242;2023-03-21T13:27:35;98289.34;;;16.13;49.72
39897;BME280;25567;48.276;14.242;2023-03-21T13:32:47;98290.97;;;16.09;48.86
39897;BME280;25567;48.276;14.242;2023-03-21T13:35:20;98284.00;;;16.08;49.34
39897;BME280;25567;48.276;14.242;2023-03-21T13:37:57;98275.69;;;16.15;50.29
39897;BME280;25567;48.276;14.242;2023-03-21T13:40:27;98272.50;;;16.13;49.90
39897;BME280;25567;48.276;14.242;2023-03-21T13:43:00;98274.06;;;16.24;50.31
39897;BME280;25567;48.276;14.242;2023-03-21T13:45:33;98269.50;;;16.35;49.39
39897;BME280;25567;48.276;14.242;2023-03-21T13:48:04;98273.00;;;16.30;49.58
39897;BME280;25567;48.276;14.242;2023-03-21T13:50:48;98273.00;;;16.30;49.22
39897;BME280;25567;48.276;14.242;2023-03-21T13:53:20;98268.44;;;16.31;49.32
39897;BME280;25567;48.276;14.242;2023-03-21T13:55:59;98266.06;;;16.29;48.66
39897;BME280;25567;48.276;14.242;2023-03-21T13:58:39;98262.88;;;16.17;48.85
39897;BME280;25567;48.276;14.242;2023-03-21T14:06:49;98253.16;;;16.42;49.93
39897;BME280;25567;48.276;14.242;2023-03-21T14:11:51;98244.84;;;16.48;48.93
39897;BME280;25567;48.276;14.242;2023-03-21T14:14:25;98248.84;;;16.51;51.56
39897;BME280;25567;48.276;14.242;2023-03-21T14:16:55;98243.50;;;16.56;50.33
39897;BME280;25567;48.276;14.242;2023-03-21T14:19:28;98238.97;;;16.51;49.44
39897;BME280;25567;48.276;14.242;2023-03-21T14:21:57;98235.44;;;16.61;50.51
39897;BME280;25567;48.276;14.242;2023-03-21T14:24:24;98234.34;;;16.73;49.21
39897;BME280;25567;48.276;14.242;2023-03-21T14:26:52;98231.16;;;16.65;49.92
39897;BME280;25567;48.276;14.242;2023-03-21T14:29:22;98224.22;;;16.64;49.17
39897;BME280;25567;48.276;14.242;2023-03-21T14:31:54;98228.53;;;16.55;49.13
39897;BME280;25567;48.276;14.242;2023-03-21T14:34:25;98230.69;;;16.43;49.89
39897;BME280;25567;48.276;14.242;2023-03-21T14:36:52;98218.91;;;16.49;49.76